the time You need

Cesena MTB

Case Castagnoli, Forlì-Cesena   Italy

domenica 25 settembre 2016

Percorsi

LUNGO - 36.0 Km

 

CORTO - 15.0 Km

Servizi

ADSCOSTPunti KS Ranking

Chip

Circuiti

Romagna Bike Cup

Ente

UISP

CLASSIFICA

LUNGO - 36.0 Km

Pos Atleta Sesso Cat PosC Team Tempo Media RTime
Sq. GORI CLAUDIO M PR - ADSCOST 00:37:21.60 57,83 00:32:51.30
1 ACCORDI LUCA M ELMT 1 OSTERIA BIKE ASD 01:33:03.92 23,21 01:30:02.82
2 CAPECE MATTIA M M1 1 KTM FORTI E LIBERI 01:35:29.94 22,62 01:32:21.24
3 BRAVACCINI MATTEO M M1 2 COMERO BIKE 01:35:31.76 22,61 01:32:31.56
4 GALAMINI MAURIZIO M M5 1 BARACCA LUGO CORSA MTB 01:35:35.52 22,60 01:32:34.22
5 POLVERINO ANDREA M M1 3 KTM FORTI E LIBERI 01:35:36.54 22,59 01:32:34.34
6 GARELLI DAVIDE M M2 1 ASD POLISPORTIVA SANMAURESE NOB 01:35:43.26 22,57 01:32:43.43
7 FABBRI CHRISTIAN M M3 1 TEAM PASSION FAENTINA 01:36:15.27 22,44 01:33:15.15
8 ZAMA LORENZO M M1 4 TEAM PASSION FAENTINA 01:36:18.77 22,43 01:33:18.47
9 RAFFAELLI SAMUELE M M2 2 TEAM MONDOBICI TECNOPLAST 01:38:42.25 21,88 01:35:40.15
10 BARBERINI ALESSANDRO M ELMT 2 TEAM NOB JOLLYWEAR 01:38:51.51 21,85 01:35:51.51
11 CURCIO MARCO M M3 2 KTM FORTI E LIBERI 01:38:52.02 21,85 01:35:50.50
12 RENZI NICOLA M M3 3 PROBIKERS 01:38:56.00 21,83 01:35:54.54
13 BOVINO MARIO M M4 1 KTM FORTI E LIBERI 01:38:59.26 21,82 01:35:59.59
14 URBINATI LUCA M M1 5 TEAM MONDOBICI TECNOPLAST 01:40:06.76 21,58 01:37:05.66
15 PARINI CARLO M M3 4 VITAMINA TEAM 01:40:14.48 21,55 01:37:08.08
16 CORSETTI FRANCESCO M M2 3 AVIS PRATOVECCHIO-ERREPI-LEE COUGAN 01:40:32.27 21,49 01:37:29.29
17 BUSSI SIMONE M M2 4 VENTURI ADVENTURE TEAM 01:40:37.26 21,47 01:37:35.35
18 CEREDI DANIELE M M2 5 TEAM ESSERE E MTBICIO 01:42:03.76 21,17 01:39:00.00
19 RIGHI GIORGIO M M1 6 BAD SKULL ASD 01:42:04.01 21,16 01:38:59.59
20 CHIARINI LUCA M M2 6 TEAM PASSION FAENTINA 01:43:04.27 20,96 01:39:49.49
21 FOSCHI CRISTIAN M M3 5 BARACCA LUGO CORSA MTB 01:43:04.51 20,96 01:40:01.01
22 GUIDI MIRCO M M3 6 SAN MARINO RACE TEAM 01:43:05.24 20,95 01:40:01.14
23 PELLEGRINO PARIDE M M4 2 TEAM TORPEDO BIKE 01:43:05.26 20,95 01:40:00.00
24 RUFFILLI PAOLO M M2 7 SPACCO ASD 01:44:03.01 20,76 01:40:58.58
25 STAVOLA LUCA M M1 7 ASD POLISPORTIVA SANMAURESE NOB 01:44:03.44 20,76 01:40:53.53
26 CAVICCHI CRISTIAN M M3 7 POL. YOUNG LINE 01:44:03.76 20,76 01:40:55.76
27 LEONI GERMANO M M5 2 TEAM PASSION FAENTINA 01:44:05.50 20,75 01:41:04.10
28 SBRIGHI MATTEO M M3 8 VITAMINA TEAM 01:44:22.51 20,70 01:41:18.18
29 GUGLIELMI MATTEO M M3 9 TEAM BIKE COCIF.COM ASD 01:44:45.02 20,62 01:41:32.32
30 RIPA STEFANO M M2 8 TEAM MONDOBICI TECNOPLAST 01:44:46.75 20,62 01:41:35.35
31 FIORINI FABIO M M5 3 KTM FORTI E LIBERI 01:44:47.65 20,61 01:41:42.45
32 ROSSI ANDREA M M4 3 BARACCA LUGO CORSA MTB 01:45:00.01 20,57 01:41:58.58
33 RICEPUTI LUCA M M2 9 TEAM ESSERE E MTBICIO 01:45:09.01 20,54 01:42:05.05
34 EUSEBI LORENZO M ELMT 3 ASD TEAM BIKE VALCONCA 01:45:18.00 20,51 01:42:03.03
35 IAMMARINO GIANLUCA M M3 10 TEAM ESSERE E MTBICIO 01:45:18.51 20,51 01:42:13.31
36 MARTINI GIAN CARLO M M3 11 BARACCA LUGO CORSA MTB 01:45:18.51 20,51 01:42:16.16
37 MACCAGLI ANDREA M ELMT 4 SAN MARINO RACE TEAM 01:45:33.03 20,46 01:42:25.25
38 CASTROGIOVANNI ANDREA M M1 8 CICLI NERI TEAM 01:47:01.75 20,18 01:43:47.05
39 CAVIOLI DANIELE M M1 9 ASD LE SALINE NATURA E SPORT 01:47:24.25 20,11 01:44:13.13
40 PRUNI PAOLO M M4 4 KTM FORTI E LIBERI 01:47:25.00 20,11 01:44:18.18
41 PAGLIARANI MARCO M M3 12 ASD MEDINOX 01:47:26.45 20,11 01:44:02.25
42 SANTI DANILO M 2S 1 TEAM BIKE 2000 ASD 01:47:36.49 20,07 01:44:16.29
43 BONFINI ROBERTO M M4 5 SAN MARINO RACE TEAM 01:48:29.75 19,91 01:45:19.55
44 RAGGINI ROBERTO M M5 4 SCORPION BIKE MTB 01:48:30.50 19,91 01:45:21.10
45 MAURO EMANUELE M ELMT 5 TEAM PASSION FAENTINA 01:50:07.75 19,62 01:46:54.55
46 ANCARANI ALESSIO M M1 10 TEAM PASSION FAENTINA 01:50:08.28 19,61 01:47:00.00
47 ALPI DEVIS M M2 10 MARRADI BIKE 01:50:58.75 19,47 01:47:51.51
48 CICOGNANI FABRIZIO M M1 11 180 BPM 01:51:52.49 19,31 01:48:22.19
49 TORTOLANI UGO M 2S 2 POL. YOUNG LINE 01:51:52.93 19,31 01:48:34.23
50 PIOGGIA LUCA M 2S 3 POL. YOUNG LINE 01:51:54.74 19,30 01:48:35.64
51 FABBRI FABIO M M5 5 180 BPM 01:51:55.75 19,30 01:48:27.55
52 PALANCA GIANLUCA M M4 6 SPACCO ASD 01:51:57.00 19,29 01:48:45.45
53 ALTINI ANDREA M 2S 4 KTM FORTI E LIBERI 01:51:57.50 19,29 01:48:37.37
54 MANIGRASSO GIOVANNI M M4 7 ASD ONLYOFF DUE RUOTE 01:51:57.50 19,29 01:48:55.40
55 LEARDINI GABRIELE M ELMT 6 ASD SBUBBIKERS 01:51:57.78 19,29 01:48:34.38
56 PRATELLI DAVIDE M 2S 5 ASDC VALLE DEL CONCA NORDIC WALKING 01:51:58.00 19,29 01:48:48.48
57 PEDROSI CRISTIAN M 2S 6 ASD BLACK ROAD 01:52:02.74 19,28 01:48:48.54
58 MURATORI GIAMPAOLO M M4 8 GRUPPO TNT 01:52:43.99 19,16 01:49:14.79
59 CAVALLI ALVER M M3 13 ASD LE SALINE NATURA E SPORT 01:53:25.00 19,04 01:50:00.00
60 ZANETTI GIANNI M M2 11 TEAM ZANETTI ASD 01:53:26.01 19,04 01:49:57.57
61 BISSIONI LORENZO M M7 1 TEAM TORPEDO BIKE 01:53:31.24 19,03 01:50:27.27
62 TOZZI MATTIA M JUN 1 TEAM NOB JOLLYWEAR 01:53:32.98 19,03 01:50:30.08
63 SARTI FILIPPO M 2S 7 ASD SAMBI TEAM 01:53:42.24 19,00 01:50:14.04
64 FANTINI MASSIMILIANO M M4 9 TEAM K-ONE ASD 01:53:51.99 18,97 01:50:34.29
65 PREDIERI GIACOMO M M7 2 BAMBANA BIKE 01:53:54.23 18,96 01:50:24.03
66 FUCCI ALESSANDRO M M2 12 KTM FORTI E LIBERI 01:54:06.49 18,93 01:50:26.39
67 DE SIMONE ALESSANDRO M M2 13 GOOD BIKE AS RONCOFREDDESE 01:54:08.49 18,93 01:50:55.09
68 COZZOLINO CLAUDIO M M3 14 ASD TEAM COMACO 01:54:19.49 18,89 01:50:59.29
69 MIGANI DENIS M 2S 8 ASCD VALLE DEL CONCA 01:54:43.23 18,83 01:51:31.03
70 GOBBI STEFANO M M1 12 ASDC VALLE DEL CONCA NORDIC WALKING 01:54:44.50 18,83 01:51:29.40
71 DALL´OSSO CARLO M M5 6 POL. YOUNG LINE 01:56:17.38 18,58 01:52:39.39
72 MARONI MICHELE M 2S 9 GOOD BIKE AS RONCOFREDDESE 01:56:19.41 18,57 01:53:05.05
73 MAGALOTTI YURI M M4 10 GS BULGARNO´ BIKE 2008 01:56:22.48 18,56 01:52:49.49
74 ZUCCA GIACOMO M M3 15 TEAM TORPEDO BIKE 01:56:42.93 18,51 01:53:01.03
75 BONAVITA ILARIO M M5 7 SPACCO ASD 01:56:52.74 18,48 01:53:46.64
76 CAVALETTI BRUNO M M3 16 GS SPORTISSIMO TOP LEVEL 01:56:55.50 18,47 01:53:26.10
77 GIOVAGNOLI LUCA M M2 14 GC CARPEGNA AVIS ALTO MONTEFELTRO 01:56:55.99 18,47 01:53:16.29
78 QUADRELLI PAOLO M M6 1 SAN MARINO RACE TEAM 01:56:56.50 18,47 01:53:39.30
79 ALESSANDRINI GUGLIELMO M M6 2 TEAM MONDOBICI TECNOPLAST 01:56:57.98 18,47 01:53:13.28
80 MACCAGLI GIULIANO M M5 8 SAN MARINO RACE TEAM 01:57:11.73 18,43 01:53:45.45
81 CAMPANINI GIANNI M M6 3 PEDALE CESENATE CICLI NERI 01:57:16.24 18,42 01:53:41.41
82 ANGELICCHIO GIUSEPPE M M3 17 ASD ONLYOFF DUE RUOTE 01:57:24.99 18,40 01:53:57.09
83 BABINI GIOVANNI M M6 4 SC VELOCIRAPTOR 01:57:25.99 18,40 01:54:00.79
84 NERI FABIO M M5 9 MARRADI BIKE 01:57:27.48 18,39 01:54:05.08
85 MAGALOTTI DAVIDE M 2S 10 SPACCO ASD 01:57:39.23 18,36 01:54:27.27
86 BECCI MORENO M M7 3 GRUPPO TNT 01:57:41.73 18,35 01:54:37.33
87 VALLICELLI MIRKO M 2S 11 TEAM PASSION FAENTINA 01:58:03.74 18,30 01:54:32.32
88 MAMBELLI MARINO M M6 5 ASD TEAM COMACO 01:58:20.73 18,25 01:55:14.14
89 GAVANELLI LORENZO M 2S 12 POL. YOUNG LINE 01:58:22.74 18,25 01:55:03.03
90 BALDAZZI ANDREA M 2S 13 ASD BIKE INNOVATION SQUADRA CORSE 01:58:22.99 18,25 01:55:01.99
91 FABIANI FABIO M 2S 14 SPACCO ASD 01:59:19.48 18,10 01:55:54.54
92 MALAVOLTA MANUEL M M1 13 BARACCA LUGO CORSA MTB 01:59:21.22 18,10 01:56:17.17
93 MORRI MIRCO M 2S 15 ASD LE SALINE NATURA E SPORT 01:59:23.24 18,09 01:55:44.44
94 MENGHETTI FABIO M M4 11 ASD BIKE INNOVATION SQUADRA CORSE 01:59:23.99 18,09 01:55:25.69
95 ALESSANDRI LORIS M M4 12 TEAM ESSERE E MTBICIO 01:59:48.98 18,03 01:56:13.68
96 BATTISTINI PIERO M M6 6 BAD SKULL ASD 01:59:50.47 18,03 01:56:07.27
97 BENINI LUCA M M3 18 POLISPORTIVA FIORENZUOLA 01:59:50.97 18,03 01:56:44.57
98 MAGRINI STEFANO M M6 7 TEAM PASSION FAENTINA 01:59:52.23 18,02 01:56:46.46
99 MANTOVANI LUCA M M5 10 BAMBANA BIKE 01:59:52.24 18,02 01:56:13.13
100 GUERRINI EMANUELE M M2 15 TEAM ZANETTI ASD 02:00:07.48 17,98 01:56:26.28
101 LAMI FLAVIO M M6 8 SCORPION BIKE MTB 02:00:10.72 17,98 01:57:00.52
102 FABBRI DOMENICO M M6 9 ROMAGNA BIKE GRANDI EVENTI 02:00:11.49 17,97 01:56:34.34
103 AGNOLETTI MARIO M 2S 16 UISP RAVENNA 02:00:11.74 17,97 01:56:37.14
104 BROCCOLI SANDRO M M5 11 TEAM MONDOBICI TECNOPLAST 02:00:12.99 17,97 01:56:25.79
105 ACCIAI MAURIZIO M M6 10 GRUPPO TNT 02:00:13.23 17,97 01:56:59.59
106 CASTELLUCCI STEFANO M 2S 17 180 BPM 02:00:13.48 17,97 01:56:49.49
107 MATTEI DENIS M M3 19 SAN MARINO MTB TEAM 02:00:14.73 17,97 01:56:40.03
108 GAVIANI FILIPPO M M1 14 BAD SKULL ASD 02:00:14.73 17,97 01:56:58.33
109 PARA MASSIMO M M5 12 COMERO BIKE 02:00:21.99 17,95 01:56:52.89
110 SASDELLI MICHELE M M3 20 BAMBANA BIKE 02:00:22.74 17,95 01:56:43.04
111 LIVERANI ALESSANDRO M M4 13 TEAM PASSION FAENTINA 02:00:26.98 17,94 01:57:02.78
112 MARTINI ALESSANDRO M M3 21 ASD BIKE INNOVATION SQUADRA CORSE 02:00:27.48 17,93 01:56:46.08
113 SPADACCINI GIANCARLO M M5 13 ASD CESENA BIKE 02:00:43.23 17,89 01:57:03.03
114 MONTANARI MAURO M 2S 18 TEAM PASSION FAENTINA 02:01:00.99 17,85 01:57:51.19
115 VALBONESI EMANUELE M 2S 19 180 BPM 02:01:27.23 17,79 01:57:55.55
116 ANTINORI MARCO M M3 22 SAN MARINO RACE TEAM 02:01:35.73 17,77 01:58:25.33
117 SAMORI´ ENRICO M ELMT 7 TEAM PASSION FAENTINA 02:01:39.97 17,76 01:58:14.07
118 RUGGIERO BRUNO M M6 11 TEAM K-ONE ASD 02:01:52.48 17,72 01:58:16.16
119 MANUZZI MIRCO M ELMT 8 GOOD BIKE AS RONCOFREDDESE 02:02:09.23 17,68 01:58:36.03
120 PODESCHI ROBERTO M M4 14 SAN MARINO RACE TEAM 02:02:13.26 17,67 01:59:06.06
121 AMADASI ENRICO M M7 4 BAMBANA BIKE 02:02:14.48 17,67 01:58:50.48
122 BISERNA BRUNO M M4 15 POLISPORTIVA SAN VITTORE - ALFIO TANI 02:02:27.69 17,64 01:58:27.27
123 ZAGHINI MARZIO M 2S 20 SPACCO ASD 02:02:33.23 17,63 01:59:02.02
124 MASOTTI IURI M M1 15 TEAM PASSION FAENTINA 02:02:33.98 17,63 01:59:08.08
125 GAMBELLA DAVID M M4 16 ASD BIKERS RACING TEAM 02:02:36.72 17,62 01:58:50.42
126 RINALDI MATTIA M M1 16 SAN MARINO RACE TEAM 02:02:38.47 17,61 01:59:17.17
127 ZAFFERANI MICHELE M M2 16 SAN MARINO MTB TEAM 02:02:46.72 17,59 01:59:12.52
128 MEDRI FRANCESCO M M5 14 BARACCA LUGO CORSA MTB 02:03:24.48 17,50 02:00:19.19
129 MAZZINI MARCO M 2S 21 BAMBANA BIKE 02:03:24.97 17,50 01:59:34.37
130 MENGOZZI CARLO M M4 17 COMERO BIKE 02:03:26.47 17,50 01:59:30.30
131 DOS SANTOS FABIO M M1 17 ASD TEAM COMACO 02:03:38.47 17,47 02:00:10.27
132 ANCARANI GIULIO M M6 12 180 BPM 02:03:40.48 17,47 01:59:49.49
133 NICOLINI MARCO M M1 18 TEAM ESSERE E MTBICIO 02:03:40.90 17,47 02:00:02.00
134 BATTELLI SIMONE M 2S 22 ASCD VALLE DEL CONCA 02:03:46.72 17,45 02:00:37.52
135 BRIZZI GIULIANO M M4 18 ASD VALMARACING TEAM 02:03:57.97 17,43 02:00:12.07
136 BRIGLIADORI SANDRO M M6 13 SCORPION BIKE MTB 02:04:12.48 17,39 02:04:12.48
137 RAGGINI VALTER M M6 14 SCORPION BIKE MTB 02:04:13.48 17,39 02:04:13.48
138 ROSSI FRANCESCO M ELMT 9 MTB CESENA 02:04:55.72 17,29 02:01:09.02
139 MAZZOLI LEONARDO M M3 23 COMERO BIKE 02:05:33.47 17,20 02:01:43.27
140 CASTORRI DANIELE M M3 24 CICLI NERI TEAM 02:05:41.16 17,19 02:01:49.49
141 CAVAZZUTI BARNABA M M1 19 DNA BIKE 02:05:45.97 17,18 02:01:52.57
142 AMADUCCI ROBERTO M M6 15 180 BPM 02:05:46.72 17,17 02:02:03.02
143 MONDUZZI MORENO M M5 15 ASD SACMI 02:05:55.97 17,15 02:02:27.77
144 MANFREDI GRAZIANO M M5 16 CICLI NERI TEAM 02:05:58.98 17,15 02:02:10.78
145 SELVA FEDERICO M 2S 23 SAN MARINO MTB TEAM 02:05:59.98 17,15 02:02:21.78
146 MUCCINI FEDERICO M M4 19 ASD LE SALINE NATURA E SPORT 02:06:20.47 17,10 02:02:38.38
147 GATTA ALESSANDRO M ELMT 10 GRUPPO TNT 02:06:25.47 17,09 02:02:34.34
148 PICCININI RAFFAELE M ELMT 11 VITAMINA TEAM 02:06:26.22 17,08 02:02:43.43
149 SAPIGNI ALESSANDRO M M3 25 SCORPION BIKE MTB 02:07:44.22 16,91 02:04:24.02
150 PARI STEFANO M M2 17 BAD SKULL ASD 02:07:57.23 16,88 02:04:26.03
151 GALLINUCCI ALESSANDRO M ELMT 12 VENTURI ADVENTURE TEAM 02:08:00.47 16,88 02:04:16.07
152 PAZZINI GERARDO M M6 16 ASD POLISPORTIVA COSMOS 02:09:22.96 16,70 02:05:21.26
153 SAMPAOLI GIMMI M M2 18 COMERO BIKE 02:10:08.97 16,60 02:06:31.27
154 ROVINELLI RICCARDO M 2S 24 SPACCO ASD 02:10:14.21 16,59 02:06:21.21
155 MANFREDI SIMONE M M3 26 CICLI NERI TEAM 02:10:56.47 16,50 02:07:06.07
156 VANNI ANGELO M M5 17 SCORPION BIKE MTB 02:11:16.75 16,46 02:07:15.55
157 PACASSONI LUCA M M4 20 ASD LE SALINE NATURA E SPORT 02:11:25.21 16,44 02:07:48.48
158 CERVI CESARE M M6 17 DNA BIKE 02:11:26.47 16,43 02:07:35.35
159 RIGHETTI PIETRO M M6 18 BAMBANA BIKE 02:13:15.97 16,21 02:09:36.07
160 CIMINI MARCO M 2S 25 ASD TEAM BIKE VALCONCA 02:14:22.95 16,08 02:10:38.85
161 TAROZZI ROBERTO M M4 21 TEAM PASSION FAENTINA 02:15:01.70 16,00 02:11:29.29
162 BERARDUCCI DANIELE M M5 18 ASD LE SALINE NATURA E SPORT 02:15:10.70 15,98 02:11:04.50
163 TERZIARI ALBERTO M M5 19 POL. YOUNG LINE 02:16:23.46 15,84 02:12:27.26
164 PERINI DAVID M M4 22 ASD LE SALINE NATURA E SPORT 02:16:23.63 15,84 02:12:40.40
165 COLOMBO ROBERTO M M5 20 BARACCA LUGO CORSA MTB 02:16:25.21 15,83 02:13:17.01
166 SIROTTI MATTEO M 2S 26 VENTURI ADVENTURE TEAM 02:16:26.96 15,83 02:12:42.56
167 BARTOLONI GIANNI M M5 21 SAN MARINO MTB TEAM 02:16:28.45 15,83 02:12:47.05
168 TONELLI ROBERTO M M7 5 COMERO BIKE 02:17:38.70 15,69 02:13:50.50
169 LUCCHI MASSIMO M M5 22 GS TORPADO SURFING SHOP SPORT PROMOTION 02:17:54.96 15,66 02:13:51.46
170 MAINARDI ROBERTO M M6 19 ASD LE SALINE NATURA E SPORT 02:19:06.45 15,53 02:15:14.25
171 MORDENTI FERNANDO M M6 20 ASD TEAM COMACO 02:19:07.70 15,53 02:14:55.00
172 CHILLO TANIA F MW2 1 ASD ONLYOFF DUE RUOTE 02:19:15.70 15,51 02:15:49.49
173 TOSCHI BENEDETTA F MW1 1 POL. YOUNG LINE 02:19:16.22 15,51 02:15:53.53
174 ARLOTTI MAURIZIO M M5 23 TEAM TORPEDO BIKE 02:21:00.19 15,32 02:17:11.11
175 GRIECO ALEN M M1 20 TEAM TORPEDO BIKE 02:21:04.45 15,31 02:17:03.05
176 TRONI MASSIMO M M4 23 ASD LE SALINE NATURA E SPORT 02:21:11.95 15,30 02:17:19.85
177 GOLFERA FABRIZIO M M6 21 TEAM PASSION FAENTINA 02:22:34.95 15,15 02:18:39.55
178 TOSI MASSIMO M M6 22 ASD SBUBBIKERS 02:22:35.69 15,15 02:18:31.39
179 MANCINI GABRIELE M M2 19 COMERO BIKE 02:27:12.69 14,67 02:23:05.05
180 BASSETTI MASSIMO M M6 23 180 BPM 02:29:02.44 14,49 02:24:52.24
181 TORSANI MAURIZIO M M6 24 ASD LE SALINE NATURA E SPORT 02:29:39.69 14,43 02:25:33.33
182 TRENTI MATTIA M ELMT 13 DNA BIKE 02:30:47.44 14,33 02:27:02.24
183 PRETELLI MARTINA F MW1 2 SAN MARINO RACE TEAM 02:30:47.94 14,33 02:26:37.04
184 MAVILLA PAOLO M M6 25 TEAM PASSION FAENTINA 02:33:01.43 14,12 02:29:14.03
185 PROKO OLSI M M2 20 GS MONTEFELTRO 02:33:02.93 14,11 02:28:59.83
186 MORETTI MARINO M M7 6 SAN MARINO MTB TEAM 02:36:54.93 13,77 02:32:50.53
187 FERRI MAURO M M7 7 BAMBANA BIKE 02:39:45.72 13,52 02:36:03.32
188 CORTINI DONATELLA F MW2 2 TEAM PASSION FAENTINA 02:43:53.17 13,18 02:39:27.27
189 GAGLIANO CLARA F MW2 3 BAMBANA BIKE 02:45:18.92 13,07 02:41:11.72
190 SIMONCINI ANDREA M ELMT 14 ASD SBUBBIKERS 03:01:12.39 11,92 02:57:07.07
191 FORTI GIULIA F MW1 3 ASD SBUBBIKERS 03:01:15.14 11,92 02:57:09.09
192 MACCHEROZZI MARTA F MW2 4 GRUPPO TNT 04:03:51.98 8,86 04:00:31.28
193 BARTOLINI VALERIA F MW2 5 TEAM TORPEDO BIKE 04:07:58.47 8,71 04:04:46.46
DNF CHIOCCIOLINI DANIELA F MW2 - 180 BPM - - -
DNF FERRARI ENRICO M M1 - SPACCO ASD - - -
DNF GARDINI EMANUELE M M3 - GS BULGARNO´ - - -
DNF GORRIERI RICCARDO M M4 - ASD VALMARACING TEAM - - -
DNF GUGLIELMI THOMAS M M2 - SPACCO ASD - - -
DNF MONTI MAURIZIO M M3 - ASD CESENA BIKE - - -
DNF MORIGI MATTEO M M1 - TEAM TORPEDO BIKE - - -
DNF SABATTINI ANGELO M M7 - DNA BIKE - - -
DNF SPINELLI SIMONLUCA M M1 - BAD SKULL ASD - - -

CORTO - 15.0 Km

Pos Atleta Sesso Cat PosC Team Tempo Media RTime
1 TOZZI ALEX M ES 1 ASCD VALLE DEL CONCA 01:45:05.96 8,56 01:45:05.96